首页
METAR-TAF:

METAR-TAF

机场 :

Great Bend Municipal Airport

Great Bend, 堪薩斯州, 美国

纬度: 38-21N, 经度: 098-52W, 海拔: 575米

当前天气观测

该预报发布于59分钟前的16:56 UTC
风速15节,风向,有时为23节阵风
温度 28°C
湿度 62%
气压 1025 hPa
能見度: 16.1公里
少量云层高于3600英尺

METAR: KGBD 201656Z AUTO 18015G23KT 10SM FEW036 28/20 A3026 RMK AO2 SLP231 T02780200

时间: 12:55 (17:55 UTC)

预报

该预报发布于32分钟前的17:23 UTC
预报有效从20日的 18点(UTC)到 21日的 18点(UTC)
风速13节,风向,有时为23节阵风
能見度: 10公里
散云层高于5000英尺
从 21日的 0200点(UTC)
风速8节,风向南转南东
能見度: 10公里
少量云层高于5000英尺
少量云层高于20000英尺

TAF: KGBD 201723Z 2018/2118 18013G23KT P6SM SCT050 FM210200 16008KT P6SM FEW050 FEW200

超过4000个机场的气象观测和天气预报(METAR&TAF报告)。

可查询的气象台以黄色和红色小点在地图上表示。

将鼠标移到小点上方,可查看气象台名称。

然后点击查看天气观测和预报。

如需切换地图:点击带黑十字的绿色按钮放大地图;点击带横线的绿色按钮缩小地图;或者点击绿色箭头查看邻近地区的地图。


METAR-TAF: